sensor_id;sensor_type;location;lat;lon;timestamp;P1;durP1;ratioP1;P2;durP2;ratioP2
2434;SDS011;1228;51.022;6.764;2024-03-02T00:01:40;4.67;;;4.37;;
2434;SDS011;1228;51.022;6.764;2024-03-02T00:04:06;4.73;;;4.37;;
2434;SDS011;1228;51.022;6.764;2024-03-02T00:06:33;4.93;;;4.57;;
2434;SDS011;1228;51.022;6.764;2024-03-02T00:08:59;4.70;;;4.40;;
2434;SDS011;1228;51.022;6.764;2024-03-02T00:11:24;4.87;;;4.30;;
2434;SDS011;1228;51.022;6.764;2024-03-02T00:13:52;5.07;;;4.57;;
2434;SDS011;1228;51.022;6.764;2024-03-02T00:16:18;4.80;;;4.37;;
2434;SDS011;1228;51.022;6.764;2024-03-02T00:18:45;5.10;;;4.67;;
2434;SDS011;1228;51.022;6.764;2024-03-02T00:21:10;4.63;;;4.33;;
2434;SDS011;1228;51.022;6.764;2024-03-02T00:23:38;5.30;;;4.80;;
2434;SDS011;1228;51.022;6.764;2024-03-02T00:26:04;4.97;;;4.53;;
2434;SDS011;1228;51.022;6.764;2024-03-02T00:28:34;5.53;;;5.03;;
2434;SDS011;1228;51.022;6.764;2024-03-02T00:31:11;5.00;;;4.60;;
2434;SDS011;1228;51.022;6.764;2024-03-02T00:36:10;4.60;;;4.30;;
2434;SDS011;1228;51.022;6.764;2024-03-02T00:38:49;4.30;;;4.00;;
2434;SDS011;1228;51.022;6.764;2024-03-02T00:41:24;4.40;;;4.10;;
2434;SDS011;1228;51.022;6.764;2024-03-02T00:44:01;4.13;;;3.83;;
2434;SDS011;1228;51.022;6.764;2024-03-02T00:46:41;5.13;;;4.57;;
2434;SDS011;1228;51.022;6.764;2024-03-02T00:51:40;5.33;;;4.83;;
2434;SDS011;1228;51.022;6.764;2024-03-02T00:54:07;5.13;;;4.63;;
2434;SDS011;1228;51.022;6.764;2024-03-02T00:56:34;5.23;;;4.80;;
2434;SDS011;1228;51.022;6.764;2024-03-02T00:59:00;5.07;;;4.67;;
2434;SDS011;1228;51.022;6.764;2024-03-02T01:01:26;4.50;;;4.17;;
2434;SDS011;1228;51.022;6.764;2024-03-02T01:03:52;4.70;;;4.40;;
2434;SDS011;1228;51.022;6.764;2024-03-02T01:06:17;6.20;;;5.07;;
2434;SDS011;1228;51.022;6.764;2024-03-02T01:08:44;5.13;;;4.73;;
2434;SDS011;1228;51.022;6.764;2024-03-02T01:11:10;5.23;;;4.83;;
2434;SDS011;1228;51.022;6.764;2024-03-02T01:13:36;5.17;;;4.80;;
2434;SDS011;1228;51.022;6.764;2024-03-02T01:16:01;4.83;;;4.53;;
2434;SDS011;1228;51.022;6.764;2024-03-02T01:18:27;4.30;;;4.00;;
2434;SDS011;1228;51.022;6.764;2024-03-02T01:20:53;4.23;;;3.83;;
2434;SDS011;1228;51.022;6.764;2024-03-02T01:23:21;4.47;;;4.03;;
2434;SDS011;1228;51.022;6.764;2024-03-02T01:25:50;7.10;;;4.33;;
2434;SDS011;1228;51.022;6.764;2024-03-02T01:28:17;4.40;;;4.20;;
2434;SDS011;1228;51.022;6.764;2024-03-02T01:30:44;4.83;;;4.27;;
2434;SDS011;1228;51.022;6.764;2024-03-02T01:33:10;4.37;;;4.07;;
2434;SDS011;1228;51.022;6.764;2024-03-02T01:35:35;4.50;;;4.20;;
2434;SDS011;1228;51.022;6.764;2024-03-02T01:38:02;4.57;;;4.27;;
2434;SDS011;1228;51.022;6.764;2024-03-02T01:40:28;5.83;;;5.33;;
2434;SDS011;1228;51.022;6.764;2024-03-02T01:42:54;5.90;;;5.50;;
2434;SDS011;1228;51.022;6.764;2024-03-02T01:45:20;5.20;;;4.90;;
2434;SDS011;1228;51.022;6.764;2024-03-02T01:47:46;5.07;;;4.67;;
2434;SDS011;1228;51.022;6.764;2024-03-02T01:50:12;5.27;;;4.87;;
2434;SDS011;1228;51.022;6.764;2024-03-02T01:52:38;4.40;;;4.10;;
2434;SDS011;1228;51.022;6.764;2024-03-02T01:55:05;4.80;;;4.50;;
2434;SDS011;1228;51.022;6.764;2024-03-02T01:57:32;6.43;;;4.63;;
2434;SDS011;1228;51.022;6.764;2024-03-02T01:59:59;5.03;;;4.73;;
2434;SDS011;1228;51.022;6.764;2024-03-02T02:02:25;5.30;;;4.90;;
2434;SDS011;1228;51.022;6.764;2024-03-02T02:04:51;6.00;;;5.60;;
2434;SDS011;1228;51.022;6.764;2024-03-02T02:07:16;5.77;;;5.37;;
2434;SDS011;1228;51.022;6.764;2024-03-02T02:09:42;5.53;;;5.23;;
2434;SDS011;1228;51.022;6.764;2024-03-02T02:12:08;6.10;;;5.70;;
2434;SDS011;1228;51.022;6.764;2024-03-02T02:14:35;5.17;;;4.70;;
2434;SDS011;1228;51.022;6.764;2024-03-02T02:17:01;4.77;;;4.47;;
2434;SDS011;1228;51.022;6.764;2024-03-02T02:19:26;4.80;;;4.50;;
2434;SDS011;1228;51.022;6.764;2024-03-02T02:21:52;5.13;;;4.73;;
2434;SDS011;1228;51.022;6.764;2024-03-02T02:24:17;5.17;;;4.80;;
2434;SDS011;1228;51.022;6.764;2024-03-02T02:26:43;5.00;;;4.70;;
2434;SDS011;1228;51.022;6.764;2024-03-02T02:29:09;4.67;;;4.37;;
2434;SDS011;1228;51.022;6.764;2024-03-02T02:31:41;4.83;;;4.43;;
2434;SDS011;1228;51.022;6.764;2024-03-02T02:34:07;8.40;;;5.17;;
2434;SDS011;1228;51.022;6.764;2024-03-02T02:36:34;5.87;;;5.30;;
2434;SDS011;1228;51.022;6.764;2024-03-02T02:39:05;4.87;;;4.23;;
2434;SDS011;1228;51.022;6.764;2024-03-02T02:41:35;5.13;;;4.70;;
2434;SDS011;1228;51.022;6.764;2024-03-02T02:44:01;4.60;;;4.20;;
2434;SDS011;1228;51.022;6.764;2024-03-02T02:46:26;4.20;;;3.90;;
2434;SDS011;1228;51.022;6.764;2024-03-02T02:48:52;4.70;;;4.33;;
2434;SDS011;1228;51.022;6.764;2024-03-02T02:51:18;4.33;;;3.83;;
2434;SDS011;1228;51.022;6.764;2024-03-02T02:53:44;5.07;;;4.43;;
2434;SDS011;1228;51.022;6.764;2024-03-02T02:56:10;4.87;;;4.53;;
2434;SDS011;1228;51.022;6.764;2024-03-02T02:58:35;5.43;;;4.90;;
2434;SDS011;1228;51.022;6.764;2024-03-02T03:01:01;4.93;;;4.53;;
2434;SDS011;1228;51.022;6.764;2024-03-02T03:03:27;5.17;;;4.70;;
2434;SDS011;1228;51.022;6.764;2024-03-02T03:05:52;5.90;;;5.30;;
2434;SDS011;1228;51.022;6.764;2024-03-02T03:08:18;5.43;;;5.03;;
2434;SDS011;1228;51.022;6.764;2024-03-02T03:10:44;4.97;;;4.67;;
2434;SDS011;1228;51.022;6.764;2024-03-02T03:13:10;4.73;;;4.40;;
2434;SDS011;1228;51.022;6.764;2024-03-02T03:15:35;4.70;;;4.40;;
2434;SDS011;1228;51.022;6.764;2024-03-02T03:18:02;5.10;;;4.70;;
2434;SDS011;1228;51.022;6.764;2024-03-02T03:20:28;4.70;;;4.40;;
2434;SDS011;1228;51.022;6.764;2024-03-02T03:22:55;6.07;;;5.57;;
2434;SDS011;1228;51.022;6.764;2024-03-02T03:25:21;5.13;;;4.80;;
2434;SDS011;1228;51.022;6.764;2024-03-02T03:27:46;4.80;;;4.50;;
2434;SDS011;1228;51.022;6.764;2024-03-02T03:30:12;4.80;;;4.50;;
2434;SDS011;1228;51.022;6.764;2024-03-02T03:32:38;5.03;;;4.70;;
2434;SDS011;1228;51.022;6.764;2024-03-02T03:35:04;4.67;;;4.37;;
2434;SDS011;1228;51.022;6.764;2024-03-02T03:37:31;5.27;;;4.93;;
2434;SDS011;1228;51.022;6.764;2024-03-02T03:39:58;6.33;;;4.90;;
2434;SDS011;1228;51.022;6.764;2024-03-02T03:42:24;4.80;;;4.40;;
2434;SDS011;1228;51.022;6.764;2024-03-02T03:44:50;4.23;;;4.03;;
2434;SDS011;1228;51.022;6.764;2024-03-02T03:47:15;5.50;;;5.10;;
2434;SDS011;1228;51.022;6.764;2024-03-02T03:49:41;5.10;;;4.70;;
2434;SDS011;1228;51.022;6.764;2024-03-02T03:52:06;5.90;;;4.57;;
2434;SDS011;1228;51.022;6.764;2024-03-02T03:54:32;5.03;;;4.60;;
2434;SDS011;1228;51.022;6.764;2024-03-02T03:56:58;5.03;;;4.60;;
2434;SDS011;1228;51.022;6.764;2024-03-02T03:59:23;4.23;;;4.03;;
2434;SDS011;1228;51.022;6.764;2024-03-02T04:01:49;5.30;;;4.80;;
2434;SDS011;1228;51.022;6.764;2024-03-02T04:04:14;5.47;;;5.07;;
2434;SDS011;1228;51.022;6.764;2024-03-02T04:06:40;5.27;;;4.97;;
2434;SDS011;1228;51.022;6.764;2024-03-02T04:09:06;5.23;;;4.73;;
2434;SDS011;1228;51.022;6.764;2024-03-02T04:11:32;5.20;;;4.80;;
2434;SDS011;1228;51.022;6.764;2024-03-02T04:13:58;5.20;;;4.77;;
2434;SDS011;1228;51.022;6.764;2024-03-02T04:16:23;4.70;;;4.40;;
2434;SDS011;1228;51.022;6.764;2024-03-02T04:18:49;7.37;;;4.80;;
2434;SDS011;1228;51.022;6.764;2024-03-02T04:21:14;5.83;;;4.50;;
2434;SDS011;1228;51.022;6.764;2024-03-02T04:23:40;4.60;;;4.20;;
2434;SDS011;1228;51.022;6.764;2024-03-02T04:26:05;4.73;;;4.43;;
2434;SDS011;1228;51.022;6.764;2024-03-02T04:28:31;4.60;;;4.20;;
2434;SDS011;1228;51.022;6.764;2024-03-02T04:30:57;4.60;;;4.20;;
2434;SDS011;1228;51.022;6.764;2024-03-02T04:33:23;4.90;;;4.50;;
2434;SDS011;1228;51.022;6.764;2024-03-02T04:35:49;5.27;;;4.87;;
2434;SDS011;1228;51.022;6.764;2024-03-02T04:38:14;4.90;;;4.47;;
2434;SDS011;1228;51.022;6.764;2024-03-02T04:40:40;4.80;;;4.40;;
2434;SDS011;1228;51.022;6.764;2024-03-02T04:43:06;4.40;;;4.10;;
2434;SDS011;1228;51.022;6.764;2024-03-02T04:45:33;4.57;;;4.23;;
2434;SDS011;1228;51.022;6.764;2024-03-02T04:47:59;4.93;;;4.53;;
2434;SDS011;1228;51.022;6.764;2024-03-02T04:50:24;5.20;;;4.73;;
2434;SDS011;1228;51.022;6.764;2024-03-02T04:52:50;4.60;;;4.20;;
2434;SDS011;1228;51.022;6.764;2024-03-02T04:55:15;5.70;;;4.07;;
2434;SDS011;1228;51.022;6.764;2024-03-02T04:57:41;5.00;;;4.60;;
2434;SDS011;1228;51.022;6.764;2024-03-02T05:00:07;4.93;;;4.53;;
2434;SDS011;1228;51.022;6.764;2024-03-02T05:02:33;4.40;;;4.10;;
2434;SDS011;1228;51.022;6.764;2024-03-02T05:04:59;5.63;;;4.77;;
2434;SDS011;1228;51.022;6.764;2024-03-02T05:07:25;5.50;;;5.00;;
2434;SDS011;1228;51.022;6.764;2024-03-02T05:09:51;4.47;;;4.17;;
2434;SDS011;1228;51.022;6.764;2024-03-02T05:12:16;5.57;;;4.50;;
2434;SDS011;1228;51.022;6.764;2024-03-02T05:14:42;5.57;;;4.63;;
2434;SDS011;1228;51.022;6.764;2024-03-02T05:17:08;4.40;;;4.10;;
2434;SDS011;1228;51.022;6.764;2024-03-02T05:19:33;4.90;;;4.50;;
2434;SDS011;1228;51.022;6.764;2024-03-02T05:21:59;4.97;;;4.57;;
2434;SDS011;1228;51.022;6.764;2024-03-02T05:24:24;4.70;;;4.40;;
2434;SDS011;1228;51.022;6.764;2024-03-02T05:26:52;4.23;;;4.00;;
2434;SDS011;1228;51.022;6.764;2024-03-02T05:29:18;4.60;;;4.30;;
2434;SDS011;1228;51.022;6.764;2024-03-02T05:31:44;5.97;;;4.40;;
2434;SDS011;1228;51.022;6.764;2024-03-02T05:34:09;4.77;;;4.23;;
2434;SDS011;1228;51.022;6.764;2024-03-02T05:36:35;6.23;;;4.60;;
2434;SDS011;1228;51.022;6.764;2024-03-02T05:39:01;5.17;;;4.27;;
2434;SDS011;1228;51.022;6.764;2024-03-02T05:41:29;4.93;;;4.50;;
2434;SDS011;1228;51.022;6.764;2024-03-02T05:43:55;4.73;;;4.43;;
2434;SDS011;1228;51.022;6.764;2024-03-02T05:46:20;4.47;;;4.17;;
2434;SDS011;1228;51.022;6.764;2024-03-02T05:48:47;5.47;;;5.10;;
2434;SDS011;1228;51.022;6.764;2024-03-02T05:51:12;4.40;;;4.07;;
2434;SDS011;1228;51.022;6.764;2024-03-02T05:53:38;4.90;;;4.50;;
2434;SDS011;1228;51.022;6.764;2024-03-02T05:56:04;4.53;;;4.13;;
2434;SDS011;1228;51.022;6.764;2024-03-02T05:58:30;4.47;;;4.10;;
2434;SDS011;1228;51.022;6.764;2024-03-02T06:01:13;4.63;;;4.27;;
2434;SDS011;1228;51.022;6.764;2024-03-02T06:03:38;4.60;;;4.20;;
2434;SDS011;1228;51.022;6.764;2024-03-02T06:06:04;4.53;;;4.23;;
2434;SDS011;1228;51.022;6.764;2024-03-02T06:08:30;4.70;;;4.30;;
2434;SDS011;1228;51.022;6.764;2024-03-02T06:10:56;6.97;;;4.13;;
2434;SDS011;1228;51.022;6.764;2024-03-02T06:13:22;4.27;;;3.97;;
2434;SDS011;1228;51.022;6.764;2024-03-02T06:15:48;4.63;;;4.33;;
2434;SDS011;1228;51.022;6.764;2024-03-02T06:18:13;6.23;;;4.17;;
2434;SDS011;1228;51.022;6.764;2024-03-02T06:20:39;4.40;;;4.07;;
2434;SDS011;1228;51.022;6.764;2024-03-02T06:23:05;4.53;;;4.10;;
2434;SDS011;1228;51.022;6.764;2024-03-02T06:25:30;4.57;;;4.20;;
2434;SDS011;1228;51.022;6.764;2024-03-02T06:27:56;4.53;;;4.13;;
2434;SDS011;1228;51.022;6.764;2024-03-02T06:30:21;4.53;;;4.23;;
2434;SDS011;1228;51.022;6.764;2024-03-02T06:32:47;5.13;;;4.23;;
2434;SDS011;1228;51.022;6.764;2024-03-02T06:35:13;4.77;;;4.30;;
2434;SDS011;1228;51.022;6.764;2024-03-02T06:37:38;4.37;;;4.07;;
2434;SDS011;1228;51.022;6.764;2024-03-02T06:40:07;5.03;;;4.63;;
2434;SDS011;1228;51.022;6.764;2024-03-02T06:42:34;4.77;;;4.23;;
2434;SDS011;1228;51.022;6.764;2024-03-02T06:45:00;4.60;;;4.20;;
2434;SDS011;1228;51.022;6.764;2024-03-02T06:47:26;4.90;;;4.40;;
2434;SDS011;1228;51.022;6.764;2024-03-02T06:49:51;4.67;;;4.27;;
2434;SDS011;1228;51.022;6.764;2024-03-02T06:52:18;4.47;;;4.07;;
2434;SDS011;1228;51.022;6.764;2024-03-02T06:54:43;8.57;;;4.07;;
2434;SDS011;1228;51.022;6.764;2024-03-02T06:57:09;4.83;;;4.30;;
2434;SDS011;1228;51.022;6.764;2024-03-02T06:59:35;4.50;;;4.10;;
2434;SDS011;1228;51.022;6.764;2024-03-02T07:02:00;4.37;;;4.07;;
2434;SDS011;1228;51.022;6.764;2024-03-02T07:04:26;4.63;;;4.23;;
2434;SDS011;1228;51.022;6.764;2024-03-02T07:06:52;5.43;;;4.37;;
2434;SDS011;1228;51.022;6.764;2024-03-02T07:09:18;4.50;;;4.10;;
2434;SDS011;1228;51.022;6.764;2024-03-02T07:11:47;5.03;;;3.80;;
2434;SDS011;1228;51.022;6.764;2024-03-02T07:14:13;4.10;;;3.80;;
2434;SDS011;1228;51.022;6.764;2024-03-02T07:16:38;4.23;;;3.93;;
2434;SDS011;1228;51.022;6.764;2024-03-02T07:19:05;4.03;;;3.70;;
2434;SDS011;1228;51.022;6.764;2024-03-02T07:21:31;4.10;;;3.80;;
2434;SDS011;1228;51.022;6.764;2024-03-02T07:23:58;4.07;;;3.60;;
2434;SDS011;1228;51.022;6.764;2024-03-02T07:26:24;3.80;;;3.53;;
2434;SDS011;1228;51.022;6.764;2024-03-02T07:28:50;4.33;;;4.03;;
2434;SDS011;1228;51.022;6.764;2024-03-02T07:31:16;7.10;;;4.07;;
2434;SDS011;1228;51.022;6.764;2024-03-02T07:33:45;4.20;;;3.90;;
2434;SDS011;1228;51.022;6.764;2024-03-02T07:36:13;4.17;;;3.77;;
2434;SDS011;1228;51.022;6.764;2024-03-02T07:38:39;3.70;;;3.40;;
2434;SDS011;1228;51.022;6.764;2024-03-02T07:41:06;3.80;;;3.50;;
2434;SDS011;1228;51.022;6.764;2024-03-02T07:43:33;3.63;;;3.33;;
2434;SDS011;1228;51.022;6.764;2024-03-02T07:45:58;3.70;;;3.40;;
2434;SDS011;1228;51.022;6.764;2024-03-02T07:48:24;3.60;;;3.30;;
2434;SDS011;1228;51.022;6.764;2024-03-02T07:50:50;4.13;;;3.10;;
2434;SDS011;1228;51.022;6.764;2024-03-02T07:53:16;3.90;;;3.60;;
2434;SDS011;1228;51.022;6.764;2024-03-02T07:55:41;3.53;;;3.23;;
2434;SDS011;1228;51.022;6.764;2024-03-02T07:58:07;4.13;;;3.80;;
2434;SDS011;1228;51.022;6.764;2024-03-02T08:00:33;3.77;;;3.17;;
2434;SDS011;1228;51.022;6.764;2024-03-02T08:03:00;4.30;;;3.23;;
2434;SDS011;1228;51.022;6.764;2024-03-02T08:05:26;6.20;;;3.20;;
2434;SDS011;1228;51.022;6.764;2024-03-02T08:07:52;3.43;;;3.20;;
2434;SDS011;1228;51.022;6.764;2024-03-02T08:10:18;5.27;;;3.33;;
2434;SDS011;1228;51.022;6.764;2024-03-02T08:12:44;3.10;;;2.90;;
2434;SDS011;1228;51.022;6.764;2024-03-02T08:15:10;3.47;;;3.13;;
2434;SDS011;1228;51.022;6.764;2024-03-02T08:17:37;3.30;;;3.00;;
2434;SDS011;1228;51.022;6.764;2024-03-02T08:20:06;3.30;;;2.77;;
2434;SDS011;1228;51.022;6.764;2024-03-02T08:22:33;2.83;;;2.57;;
2434;SDS011;1228;51.022;6.764;2024-03-02T08:24:58;3.00;;;2.80;;
2434;SDS011;1228;51.022;6.764;2024-03-02T08:27:24;3.17;;;2.53;;
2434;SDS011;1228;51.022;6.764;2024-03-02T08:29:49;2.90;;;2.50;;
2434;SDS011;1228;51.022;6.764;2024-03-02T08:32:15;3.03;;;2.83;;
2434;SDS011;1228;51.022;6.764;2024-03-02T08:34:42;3.10;;;2.90;;
2434;SDS011;1228;51.022;6.764;2024-03-02T08:37:07;2.77;;;2.57;;
2434;SDS011;1228;51.022;6.764;2024-03-02T08:39:33;2.70;;;2.50;;
2434;SDS011;1228;51.022;6.764;2024-03-02T08:41:59;3.60;;;2.70;;
2434;SDS011;1228;51.022;6.764;2024-03-02T08:44:24;3.63;;;2.60;;
2434;SDS011;1228;51.022;6.764;2024-03-02T08:46:50;3.63;;;2.67;;
2434;SDS011;1228;51.022;6.764;2024-03-02T08:49:15;3.10;;;2.70;;
2434;SDS011;1228;51.022;6.764;2024-03-02T08:51:41;3.07;;;2.40;;
2434;SDS011;1228;51.022;6.764;2024-03-02T08:54:07;2.50;;;2.30;;
2434;SDS011;1228;51.022;6.764;2024-03-02T08:56:32;2.63;;;2.43;;
2434;SDS011;1228;51.022;6.764;2024-03-02T08:58:58;2.30;;;2.20;;
2434;SDS011;1228;51.022;6.764;2024-03-02T09:01:23;2.73;;;2.30;;
2434;SDS011;1228;51.022;6.764;2024-03-02T09:03:49;2.43;;;2.10;;
2434;SDS011;1228;51.022;6.764;2024-03-02T09:06:15;2.30;;;2.10;;
2434;SDS011;1228;51.022;6.764;2024-03-02T09:08:45;2.40;;;2.30;;
2434;SDS011;1228;51.022;6.764;2024-03-02T09:11:11;2.40;;;2.20;;
2434;SDS011;1228;51.022;6.764;2024-03-02T09:13:37;3.93;;;2.70;;
2434;SDS011;1228;51.022;6.764;2024-03-02T09:16:03;4.70;;;2.67;;
2434;SDS011;1228;51.022;6.764;2024-03-02T09:18:30;6.30;;;2.30;;
2434;SDS011;1228;51.022;6.764;2024-03-02T09:20:56;2.27;;;2.07;;
2434;SDS011;1228;51.022;6.764;2024-03-02T09:23:21;2.20;;;2.00;;
2434;SDS011;1228;51.022;6.764;2024-03-02T09:25:47;2.60;;;2.10;;
2434;SDS011;1228;51.022;6.764;2024-03-02T09:28:12;4.40;;;2.17;;
2434;SDS011;1228;51.022;6.764;2024-03-02T09:30:40;3.93;;;2.00;;
2434;SDS011;1228;51.022;6.764;2024-03-02T09:33:05;2.10;;;2.00;;
2434;SDS011;1228;51.022;6.764;2024-03-02T09:35:31;2.20;;;2.00;;
2434;SDS011;1228;51.022;6.764;2024-03-02T09:37:57;2.23;;;2.03;;
2434;SDS011;1228;51.022;6.764;2024-03-02T09:40:22;2.40;;;2.20;;
2434;SDS011;1228;51.022;6.764;2024-03-02T09:42:48;2.30;;;2.00;;
2434;SDS011;1228;51.022;6.764;2024-03-02T09:45:20;2.30;;;1.90;;
2434;SDS011;1228;51.022;6.764;2024-03-02T09:47:48;4.40;;;2.27;;
2434;SDS011;1228;51.022;6.764;2024-03-02T09:50:14;3.93;;;2.33;;
2434;SDS011;1228;51.022;6.764;2024-03-02T09:52:40;2.40;;;2.20;;
2434;SDS011;1228;51.022;6.764;2024-03-02T09:55:07;1.87;;;1.77;;
2434;SDS011;1228;51.022;6.764;2024-03-02T09:57:33;3.53;;;2.30;;
2434;SDS011;1228;51.022;6.764;2024-03-02T09:59:59;2.30;;;2.10;;
2434;SDS011;1228;51.022;6.764;2024-03-02T10:02:25;3.73;;;2.27;;
2434;SDS011;1228;51.022;6.764;2024-03-02T10:04:50;4.10;;;2.37;;
2434;SDS011;1228;51.022;6.764;2024-03-02T10:07:17;4.23;;;2.27;;
2434;SDS011;1228;51.022;6.764;2024-03-02T10:09:47;3.93;;;2.67;;
2434;SDS011;1228;51.022;6.764;2024-03-02T10:12:14;4.07;;;3.03;;
2434;SDS011;1228;51.022;6.764;2024-03-02T10:14:41;2.30;;;2.10;;
2434;SDS011;1228;51.022;6.764;2024-03-02T10:17:07;2.83;;;2.40;;
2434;SDS011;1228;51.022;6.764;2024-03-02T10:19:34;6.23;;;2.60;;
2434;SDS011;1228;51.022;6.764;2024-03-02T10:22:02;2.63;;;2.00;;
2434;SDS011;1228;51.022;6.764;2024-03-02T10:24:35;2.13;;;1.90;;
2434;SDS011;1228;51.022;6.764;2024-03-02T10:27:06;2.20;;;2.00;;
2434;SDS011;1228;51.022;6.764;2024-03-02T10:29:39;2.97;;;2.10;;
2434;SDS011;1228;51.022;6.764;2024-03-02T10:32:05;2.20;;;2.07;;
2434;SDS011;1228;51.022;6.764;2024-03-02T10:34:36;3.87;;;2.00;;
2434;SDS011;1228;51.022;6.764;2024-03-02T10:37:01;5.67;;;2.40;;
2434;SDS011;1228;51.022;6.764;2024-03-02T10:39:28;3.10;;;2.10;;
2434;SDS011;1228;51.022;6.764;2024-03-02T10:41:55;3.83;;;2.23;;
2434;SDS011;1228;51.022;6.764;2024-03-02T10:44:22;3.40;;;2.10;;
2434;SDS011;1228;51.022;6.764;2024-03-02T10:46:49;2.20;;;2.00;;
2434;SDS011;1228;51.022;6.764;2024-03-02T10:49:18;4.47;;;2.30;;
2434;SDS011;1228;51.022;6.764;2024-03-02T10:51:45;3.57;;;2.17;;
2434;SDS011;1228;51.022;6.764;2024-03-02T10:54:11;5.73;;;2.10;;
2434;SDS011;1228;51.022;6.764;2024-03-02T10:56:40;2.37;;;2.00;;
2434;SDS011;1228;51.022;6.764;2024-03-02T11:01:50;2.57;;;2.13;;
2434;SDS011;1228;51.022;6.764;2024-03-02T11:04:18;2.30;;;2.10;;
2434;SDS011;1228;51.022;6.764;2024-03-02T11:06:50;4.40;;;2.30;;
2434;SDS011;1228;51.022;6.764;2024-03-02T11:09:22;2.40;;;2.20;;
2434;SDS011;1228;51.022;6.764;2024-03-02T11:12:35;4.53;;;2.50;;
2434;SDS011;1228;51.022;6.764;2024-03-02T11:14:44;3.13;;;2.33;;
2434;SDS011;1228;51.022;6.764;2024-03-02T11:17:09;2.17;;;2.07;;
2434;SDS011;1228;51.022;6.764;2024-03-02T11:19:38;5.37;;;2.40;;
2434;SDS011;1228;51.022;6.764;2024-03-02T11:22:05;2.43;;;2.23;;
2434;SDS011;1228;51.022;6.764;2024-03-02T11:24:32;3.13;;;2.10;;
2434;SDS011;1228;51.022;6.764;2024-03-02T11:26:58;2.10;;;1.97;;
2434;SDS011;1228;51.022;6.764;2024-03-02T11:32:17;5.60;;;2.50;;
2434;SDS011;1228;51.022;6.764;2024-03-02T11:34:49;2.53;;;2.20;;
2434;SDS011;1228;51.022;6.764;2024-03-02T11:37:16;2.27;;;2.10;;
2434;SDS011;1228;51.022;6.764;2024-03-02T11:39:43;2.30;;;2.10;;
2434;SDS011;1228;51.022;6.764;2024-03-02T11:42:10;2.30;;;2.20;;
2434;SDS011;1228;51.022;6.764;2024-03-02T11:44:38;2.30;;;2.20;;
2434;SDS011;1228;51.022;6.764;2024-03-02T11:47:06;2.77;;;2.17;;
2434;SDS011;1228;51.022;6.764;2024-03-02T11:49:36;2.17;;;2.07;;
2434;SDS011;1228;51.022;6.764;2024-03-02T11:52:10;3.57;;;2.00;;
2434;SDS011;1228;51.022;6.764;2024-03-02T11:54:37;2.43;;;2.20;;
2434;SDS011;1228;51.022;6.764;2024-03-02T11:57:11;2.27;;;1.90;;
2434;SDS011;1228;51.022;6.764;2024-03-02T11:59:37;2.57;;;2.33;;
2434;SDS011;1228;51.022;6.764;2024-03-02T12:02:03;2.20;;;2.10;;
2434;SDS011;1228;51.022;6.764;2024-03-02T12:04:29;2.87;;;2.17;;
2434;SDS011;1228;51.022;6.764;2024-03-02T12:06:59;2.97;;;2.40;;
2434;SDS011;1228;51.022;6.764;2024-03-02T12:09:28;2.20;;;2.10;;
2434;SDS011;1228;51.022;6.764;2024-03-02T12:12:01;4.00;;;3.00;;
2434;SDS011;1228;51.022;6.764;2024-03-02T12:14:31;3.63;;;2.50;;
2434;SDS011;1228;51.022;6.764;2024-03-02T12:16:57;3.23;;;2.73;;
2434;SDS011;1228;51.022;6.764;2024-03-02T12:19:26;3.10;;;2.60;;
2434;SDS011;1228;51.022;6.764;2024-03-02T12:21:54;2.40;;;2.30;;
2434;SDS011;1228;51.022;6.764;2024-03-02T12:24:27;2.80;;;2.60;;
2434;SDS011;1228;51.022;6.764;2024-03-02T12:26:53;2.30;;;2.20;;
2434;SDS011;1228;51.022;6.764;2024-03-02T12:29:20;2.63;;;2.43;;
2434;SDS011;1228;51.022;6.764;2024-03-02T12:31:49;3.17;;;2.70;;
2434;SDS011;1228;51.022;6.764;2024-03-02T12:34:17;2.93;;;2.63;;
2434;SDS011;1228;51.022;6.764;2024-03-02T12:36:44;3.63;;;2.73;;
2434;SDS011;1228;51.022;6.764;2024-03-02T12:39:16;2.67;;;2.40;;
2434;SDS011;1228;51.022;6.764;2024-03-02T12:41:43;2.70;;;2.50;;
2434;SDS011;1228;51.022;6.764;2024-03-02T12:44:09;2.77;;;2.57;;
2434;SDS011;1228;51.022;6.764;2024-03-02T12:46:35;2.90;;;2.60;;
2434;SDS011;1228;51.022;6.764;2024-03-02T12:49:10;3.00;;;2.87;;
2434;SDS011;1228;51.022;6.764;2024-03-02T12:51:37;3.60;;;2.50;;
2434;SDS011;1228;51.022;6.764;2024-03-02T12:54:05;3.63;;;2.47;;
2434;SDS011;1228;51.022;6.764;2024-03-02T12:56:32;2.50;;;2.40;;
2434;SDS011;1228;51.022;6.764;2024-03-02T12:58:58;2.53;;;2.37;;
2434;SDS011;1228;51.022;6.764;2024-03-02T13:01:24;2.37;;;2.23;;
2434;SDS011;1228;51.022;6.764;2024-03-02T13:03:50;4.70;;;2.60;;
2434;SDS011;1228;51.022;6.764;2024-03-02T13:06:18;2.80;;;2.57;;
2434;SDS011;1228;51.022;6.764;2024-03-02T13:08:45;3.50;;;2.50;;
2434;SDS011;1228;51.022;6.764;2024-03-02T13:11:12;3.00;;;2.70;;
2434;SDS011;1228;51.022;6.764;2024-03-02T13:13:38;3.00;;;2.60;;
2434;SDS011;1228;51.022;6.764;2024-03-02T13:16:11;3.27;;;2.97;;
2434;SDS011;1228;51.022;6.764;2024-03-02T13:18:41;3.40;;;2.70;;
2434;SDS011;1228;51.022;6.764;2024-03-02T13:21:07;3.93;;;2.60;;
2434;SDS011;1228;51.022;6.764;2024-03-02T13:23:33;2.50;;;2.30;;
2434;SDS011;1228;51.022;6.764;2024-03-02T13:25:59;2.60;;;2.40;;
2434;SDS011;1228;51.022;6.764;2024-03-02T13:28:25;2.93;;;2.63;;
2434;SDS011;1228;51.022;6.764;2024-03-02T13:30:50;2.40;;;2.30;;
2434;SDS011;1228;51.022;6.764;2024-03-02T13:33:16;4.37;;;2.50;;
2434;SDS011;1228;51.022;6.764;2024-03-02T13:35:47;3.53;;;3.10;;
2434;SDS011;1228;51.022;6.764;2024-03-02T13:38:16;2.93;;;2.73;;
2434;SDS011;1228;51.022;6.764;2024-03-02T13:40:46;3.33;;;3.03;;
2434;SDS011;1228;51.022;6.764;2024-03-02T13:43:17;2.43;;;2.30;;
2434;SDS011;1228;51.022;6.764;2024-03-02T13:45:44;2.80;;;2.57;;
2434;SDS011;1228;51.022;6.764;2024-03-02T13:48:09;2.90;;;2.70;;
2434;SDS011;1228;51.022;6.764;2024-03-02T13:50:35;2.50;;;2.30;;
2434;SDS011;1228;51.022;6.764;2024-03-02T13:53:01;2.70;;;2.50;;
2434;SDS011;1228;51.022;6.764;2024-03-02T13:55:28;2.80;;;2.60;;
2434;SDS011;1228;51.022;6.764;2024-03-02T13:57:53;2.67;;;2.47;;
2434;SDS011;1228;51.022;6.764;2024-03-02T14:00:19;2.80;;;2.70;;
2434;SDS011;1228;51.022;6.764;2024-03-02T14:02:45;2.80;;;2.60;;
2434;SDS011;1228;51.022;6.764;2024-03-02T14:05:11;3.03;;;2.77;;
2434;SDS011;1228;51.022;6.764;2024-03-02T14:07:38;3.43;;;3.13;;
2434;SDS011;1228;51.022;6.764;2024-03-02T14:10:05;3.30;;;3.00;;
2434;SDS011;1228;51.022;6.764;2024-03-02T14:12:31;3.37;;;2.50;;
2434;SDS011;1228;51.022;6.764;2024-03-02T14:14:57;2.90;;;2.70;;
2434;SDS011;1228;51.022;6.764;2024-03-02T14:17:23;2.70;;;2.50;;
2434;SDS011;1228;51.022;6.764;2024-03-02T14:19:50;2.77;;;2.57;;
2434;SDS011;1228;51.022;6.764;2024-03-02T14:22:17;3.23;;;3.00;;
2434;SDS011;1228;51.022;6.764;2024-03-02T14:24:42;2.90;;;2.67;;
2434;SDS011;1228;51.022;6.764;2024-03-02T14:27:08;2.67;;;2.47;;
2434;SDS011;1228;51.022;6.764;2024-03-02T14:29:34;2.90;;;2.70;;
2434;SDS011;1228;51.022;6.764;2024-03-02T14:32:02;2.57;;;2.40;;
2434;SDS011;1228;51.022;6.764;2024-03-02T14:34:28;4.60;;;2.57;;
2434;SDS011;1228;51.022;6.764;2024-03-02T14:36:54;2.50;;;2.30;;
2434;SDS011;1228;51.022;6.764;2024-03-02T14:39:20;3.00;;;2.80;;
2434;SDS011;1228;51.022;6.764;2024-03-02T14:41:46;2.77;;;2.57;;
2434;SDS011;1228;51.022;6.764;2024-03-02T14:44:12;2.80;;;2.60;;
2434;SDS011;1228;51.022;6.764;2024-03-02T14:46:37;2.50;;;2.30;;
2434;SDS011;1228;51.022;6.764;2024-03-02T14:49:03;2.60;;;2.40;;
2434;SDS011;1228;51.022;6.764;2024-03-02T14:51:29;2.77;;;2.50;;
2434;SDS011;1228;51.022;6.764;2024-03-02T14:53:55;2.60;;;2.40;;
2434;SDS011;1228;51.022;6.764;2024-03-02T14:56:21;3.00;;;2.50;;
2434;SDS011;1228;51.022;6.764;2024-03-02T14:58:46;2.50;;;2.30;;
2434;SDS011;1228;51.022;6.764;2024-03-02T15:01:12;2.80;;;2.50;;
2434;SDS011;1228;51.022;6.764;2024-03-02T15:03:38;2.60;;;2.40;;
2434;SDS011;1228;51.022;6.764;2024-03-02T15:06:05;2.23;;;2.13;;
2434;SDS011;1228;51.022;6.764;2024-03-02T15:08:32;3.20;;;2.60;;
2434;SDS011;1228;51.022;6.764;2024-03-02T15:10:58;3.13;;;2.70;;
2434;SDS011;1228;51.022;6.764;2024-03-02T15:13:25;2.73;;;2.53;;
2434;SDS011;1228;51.022;6.764;2024-03-02T15:15:51;2.50;;;2.40;;
2434;SDS011;1228;51.022;6.764;2024-03-02T15:18:18;2.43;;;2.23;;
2434;SDS011;1228;51.022;6.764;2024-03-02T15:20:44;2.53;;;2.33;;
2434;SDS011;1228;51.022;6.764;2024-03-02T15:23:10;3.90;;;2.50;;